Time;durP1;ratioP1;P1;durP2;ratioP2;P2;SDS_P1;SDS_P2;PMS_P1;PMS_P2;Temp;Humidity;BMP_temperature;BMP_pressure;BME280_temperature;BME280_humidity;BME280_pressure;Samples;Min_cycle;Max_cycle;Signal;HPM_P1;HPM_P2
2023/05/10 00:00:37;;;;;;;2.60;1.35;;;20.90;72.00;;;;;;4989159;28;20046;-69
2023/05/10 00:03:05;;;;;;;3.00;1.40;;;20.90;72.00;;;;;;4986209;28;20515;-69
2023/05/10 00:05:33;;;;;;;2.25;1.27;;;20.90;72.00;;;;;;4985176;28;20039;-69
2023/05/10 00:08:00;;;;;;;3.75;1.38;;;20.90;71.90;;;;;;4988756;28;20081;-69
2023/05/10 00:10:27;;;;;;;3.30;1.83;;;20.90;71.90;;;;;;4989515;28;20503;-69
2023/05/10 00:12:54;;;;;;;2.50;1.52;;;20.90;71.90;;;;;;4989734;28;20069;-69
2023/05/10 00:15:21;;;;;;;2.50;1.40;;;20.90;72.50;;;;;;4990437;28;20139;-70
2023/05/10 00:17:48;;;;;;;2.65;1.35;;;20.90;72.00;;;;;;4991643;28;20054;-69
2023/05/10 00:20:15;;;;;;;3.53;1.90;;;20.90;71.90;;;;;;4988204;28;20499;-69
2023/05/10 00:22:43;;;;;;;2.88;1.58;;;20.90;71.90;;;;;;4982327;28;20479;-69
2023/05/10 00:25:11;;;;;;;2.60;1.30;;;20.90;72.00;;;;;;4992985;28;20062;-69
2023/05/10 00:27:38;;;;;;;2.90;1.25;;;20.90;71.90;;;;;;4992289;28;20047;-69
2023/05/10 00:30:06;;;;;;;3.22;2.03;;;20.90;71.90;;;;;;4991937;28;20062;-69
2023/05/10 00:32:33;;;;;;;2.67;1.40;;;20.90;71.90;;;;;;4991807;28;20489;-69
2023/05/10 00:35:00;;;;;;;2.40;1.23;;;20.90;71.90;;;;;;4985044;28;20046;-69
2023/05/10 00:37:27;;;;;;;3.90;1.20;;;20.90;72.00;;;;;;4986751;28;20076;-69
2023/05/10 00:39:55;;;;;;;3.35;1.50;;;20.90;71.90;;;;;;4986464;28;20129;-69
2023/05/10 00:42:23;;;;;;;2.85;1.52;;;20.90;71.90;;;;;;4988834;28;20047;-70
2023/05/10 00:44:50;;;;;;;2.50;1.38;;;20.90;71.90;;;;;;4992711;28;20058;-69
2023/05/10 00:47:17;;;;;;;3.00;1.60;;;20.80;71.90;;;;;;4992093;28;20050;-69
2023/05/10 00:49:45;;;;;;;3.42;1.55;;;20.80;71.90;;;;;;4988827;28;20480;-69
2023/05/10 00:52:12;;;;;;;2.20;1.23;;;20.80;71.90;;;;;;4992963;28;20042;-69
2023/05/10 00:54:39;;;;;;;2.30;1.02;;;20.90;72.00;;;;;;4991163;28;20061;-69
2023/05/10 00:57:07;;;;;;;2.58;1.40;;;20.80;71.90;;;;;;4991276;28;20058;-69
2023/05/10 00:59:34;;;;;;;2.33;1.25;;;20.80;71.90;;;;;;4991499;28;20077;-69
2023/05/10 01:02:02;;;;;;;2.70;1.67;;;20.80;71.90;;;;;;4991273;28;20056;-69
2023/05/10 01:04:30;;;;;;;2.53;1.38;;;20.80;71.90;;;;;;4992347;28;20054;-69
2023/05/10 01:06:57;;;;;;;2.15;1.20;;;20.80;71.90;;;;;;4991764;28;20049;-69
2023/05/10 01:09:26;;;;;;;2.22;1.40;;;20.80;71.90;;;;;;4992252;28;20058;-70
2023/05/10 01:11:54;;;;;;;2.05;1.10;;;20.80;71.80;;;;;;4990576;28;20566;-69
2023/05/10 01:14:22;;;;;;;2.35;1.13;;;20.80;71.90;;;;;;4980568;28;20109;-70
2023/05/10 01:16:50;;;;;;;2.03;1.20;;;20.80;71.80;;;;;;4981822;28;20054;-69
2023/05/10 01:19:22;;;;;;;2.70;1.25;;;20.80;71.80;;;;;;4984574;28;20070;-69
2023/05/10 01:21:57;;;;;;;2.30;1.10;;;20.80;71.80;;;;;;4981034;28;20057;-69
2023/05/10 01:25:00;;;;;;;2.30;1.38;;;20.80;71.80;;;;;;4988850;28;20065;-69
2023/05/10 01:28:05;;;;;;;2.45;1.38;;;20.80;71.80;;;;;;4956081;28;20046;-69
2023/05/10 01:31:08;;;;;;;2.72;1.38;;;20.80;71.80;;;;;;4945650;28;20062;-69
2023/05/10 01:33:43;;;;;;;2.95;1.30;;;20.80;71.80;;;;;;4991483;28;20050;-69
2023/05/10 01:36:25;;;;;;;3.25;1.30;;;20.80;71.80;;;;;;4980061;28;20061;-70
2023/05/10 01:38:53;;;;;;;;;;;20.80;71.80;;;;;;4985766;28;20557;-69
2023/05/10 01:41:27;;;;;;;2.58;1.35;;;20.80;71.80;;;;;;4991004;28;19926;-69
2023/05/10 01:43:58;;;;;;;2.10;1.02;;;20.80;71.80;;;;;;4990805;28;20058;-70
2023/05/10 01:46:29;;;;;;;2.22;1.23;;;20.80;71.80;;;;;;4989375;28;20050;-69
2023/05/10 01:49:00;;;;;;;2.75;1.27;;;20.80;71.80;;;;;;4988235;28;20863;-69
2023/05/10 01:51:37;;;;;;;2.70;1.45;;;20.80;71.80;;;;;;4992222;28;20046;-69
2023/05/10 01:54:05;;;;;;;2.15;1.00;;;20.80;71.80;;;;;;4990817;28;20046;-69
2023/05/10 01:56:35;;;;;;;2.20;1.13;;;20.80;71.90;;;;;;4989454;28;20100;-69
2023/05/10 01:59:07;;;;;;;2.65;1.02;;;20.70;71.80;;;;;;4990501;28;20065;-69
2023/05/10 02:01:37;;;;;;;2.28;1.20;;;20.80;71.80;;;;;;4989823;28;20058;-69
2023/05/10 02:04:07;;;;;;;2.10;1.27;;;20.80;71.80;;;;;;4978446;28;20483;-69
2023/05/10 02:06:35;;;;;;;2.58;1.40;;;20.70;71.80;;;;;;4986286;28;20529;-69
2023/05/10 02:09:02;;;;;;;2.17;1.02;;;20.70;71.80;;;;;;4991882;28;20090;-69
2023/05/10 02:11:30;;;;;;;2.80;1.25;;;20.70;71.80;;;;;;4991440;28;20064;-70
2023/05/10 02:13:59;;;;;;;2.33;1.17;;;20.70;71.80;;;;;;4991391;28;20065;-69
2023/05/10 02:16:30;;;;;;;2.25;1.33;;;20.70;71.80;;;;;;4990366;28;20054;-69
2023/05/10 02:18:59;;;;;;;1.83;0.80;;;20.70;72.40;;;;;;4989559;28;20486;-69
2023/05/10 02:21:30;;;;;;;2.80;0.93;;;20.70;71.80;;;;;;4990419;28;20050;-69
2023/05/10 02:23:58;;;;;;;2.00;1.15;;;20.70;71.80;;;;;;4989713;28;20050;-69
2023/05/10 02:26:27;;;;;;;2.08;0.95;;;20.70;71.80;;;;;;4991909;28;20049;-69
2023/05/10 02:28:54;;;;;;;3.05;1.13;;;20.70;71.80;;;;;;4990058;28;20104;-69
2023/05/10 02:31:22;;;;;;;1.75;0.90;;;20.70;71.80;;;;;;4991017;28;20872;-69
2023/05/10 02:33:50;;;;;;;3.22;1.20;;;20.70;71.80;;;;;;4991588;28;20427;-69
2023/05/10 02:36:18;;;;;;;2.22;1.10;;;20.70;71.80;;;;;;4987421;28;20061;-69
2023/05/10 02:38:47;;;;;;;1.52;0.52;;;20.70;71.80;;;;;;4984587;28;20062;-69
2023/05/10 02:41:15;;;;;;;;;;;20.70;71.80;;;;;;4989617;28;20050;-69
2023/05/10 02:43:42;;;;;;;2.17;0.98;;;20.70;71.70;;;;;;4990821;28;19932;-69
2023/05/10 02:46:09;;;;;;;2.35;1.20;;;20.70;71.70;;;;;;4983913;28;20050;-69
2023/05/10 02:48:38;;;;;;;2.25;1.10;;;20.70;71.80;;;;;;4984305;28;20443;-69
2023/05/10 02:51:07;;;;;;;2.05;1.00;;;20.70;71.80;;;;;;4990789;28;20054;-69
2023/05/10 02:53:37;;;;;;;2.33;0.90;;;20.70;71.80;;;;;;4988247;28;20113;-69
2023/05/10 02:56:14;;;;;;;1.90;0.80;;;20.70;71.80;;;;;;4989413;28;20430;-69
2023/05/10 02:58:41;;;;;;;1.90;1.10;;;20.70;71.80;;;;;;4988609;28;20062;-70
2023/05/10 03:01:08;;;;;;;2.20;0.98;;;20.60;71.70;;;;;;4990141;28;20396;-69
2023/05/10 03:03:35;;;;;;;1.73;0.77;;;20.70;71.70;;;;;;4988736;28;20072;-69
2023/05/10 03:06:02;;;;;;;2.10;1.20;;;20.70;71.80;;;;;;4990375;28;20062;-69
2023/05/10 03:08:30;;;;;;;2.20;1.17;;;20.70;71.80;;;;;;4990423;28;20046;-69
2023/05/10 03:11:09;;;;;;;2.67;0.80;;;20.70;71.80;;;;;;4990363;28;20163;-69
2023/05/10 03:13:45;;;;;;;2.70;1.13;;;20.70;71.80;;;;;;4986086;28;20132;-69
2023/05/10 03:16:16;;;;;;;2.13;0.80;;;20.70;71.80;;;;;;4984152;28;20054;-69
2023/05/10 03:18:48;;;;;;;2.33;1.20;;;20.60;71.70;;;;;;4988582;28;20459;-69
2023/05/10 03:21:18;;;;;;;2.13;0.82;;;20.60;71.70;;;;;;4988446;28;20126;-69
2023/05/10 03:23:51;;;;;;;1.77;0.70;;;20.60;71.70;;;;;;4989473;28;20637;-69
2023/05/10 03:26:26;;;;;;;1.55;0.75;;;20.60;71.70;;;;;;4985108;28;20138;-69
2023/05/10 03:28:54;;;;;;;1.88;0.75;;;20.60;71.70;;;;;;4986957;28;20046;-69
2023/05/10 03:31:21;;;;;;;1.98;0.98;;;20.70;71.70;;;;;;4988241;28;20057;-69
2023/05/10 03:33:49;;;;;;;1.80;0.70;;;20.60;71.60;;;;;;4986147;28;20108;-69
2023/05/10 03:36:16;;;;;;;2.20;0.77;;;20.60;71.60;;;;;;4987172;28;20057;-69
2023/05/10 03:38:43;;;;;;;1.65;0.90;;;20.60;71.60;;;;;;4986627;28;20053;-69
2023/05/10 03:41:10;;;;;;;1.88;0.75;;;20.60;71.60;;;;;;4988539;28;20054;-69
2023/05/10 03:43:38;;;;;;;1.50;0.57;;;20.60;71.60;;;;;;4983210;28;20046;-69
2023/05/10 03:46:10;;;;;;;2.00;0.98;;;20.60;71.60;;;;;;4986067;28;20050;-69
2023/05/10 03:48:37;;;;;;;1.85;0.60;;;20.60;71.60;;;;;;4987051;28;20054;-69
2023/05/10 03:51:04;;;;;;;1.55;0.75;;;20.60;71.60;;;;;;4987079;28;20050;-69
2023/05/10 03:53:31;;;;;;;1.73;0.80;;;20.60;71.60;;;;;;4987594;28;20055;-69
2023/05/10 03:55:58;;;;;;;1.83;0.90;;;20.60;71.60;;;;;;4987248;28;20061;-70
2023/05/10 03:58:25;;;;;;;2.47;0.75;;;20.60;71.60;;;;;;4985800;28;20050;-69
2023/05/10 04:00:53;;;;;;;1.60;0.63;;;20.60;71.60;;;;;;4987384;28;20053;-69
2023/05/10 04:03:21;;;;;;;1.92;0.70;;;20.60;71.60;;;;;;4984346;28;20062;-69
2023/05/10 04:05:48;;;;;;;1.50;0.70;;;20.60;71.60;;;;;;4987817;28;20046;-69
2023/05/10 04:08:16;;;;;;;1.50;0.50;;;20.60;71.60;;;;;;4983836;28;20050;-70
2023/05/10 04:10:43;;;;;;;1.73;0.82;;;20.60;71.60;;;;;;4986850;28;20499;-69
2023/05/10 04:13:10;;;;;;;1.80;0.70;;;20.60;71.60;;;;;;4988936;28;20050;-69
2023/05/10 04:15:37;;;;;;;2.20;0.75;;;20.60;71.60;;;;;;4985357;28;20092;-69
2023/05/10 04:18:06;;;;;;;1.60;0.68;;;20.60;71.60;;;;;;4979061;28;20050;-69
2023/05/10 04:20:34;;;;;;;2.25;0.90;;;20.60;71.60;;;;;;4987434;28;20050;-69
2023/05/10 04:23:01;;;;;;;1.77;0.50;;;20.60;71.60;;;;;;4988037;28;20148;-69
2023/05/10 04:25:28;;;;;;;1.60;0.60;;;20.60;71.60;;;;;;4987900;28;20062;-69
2023/05/10 04:27:55;;;;;;;1.90;0.70;;;20.60;71.60;;;;;;4987652;28;20046;-69
2023/05/10 04:30:22;;;;;;;1.75;0.75;;;20.60;71.60;;;;;;4984890;28;20054;-69
2023/05/10 04:32:49;;;;;;;2.55;0.77;;;20.60;71.60;;;;;;4986958;28;20415;-69
2023/05/10 04:35:17;;;;;;;1.77;0.40;;;20.60;71.50;;;;;;4986180;28;20136;-69
2023/05/10 04:37:44;;;;;;;1.55;0.70;;;20.50;71.50;;;;;;4984786;28;20057;-69
2023/05/10 04:40:12;;;;;;;1.60;0.65;;;20.60;71.60;;;;;;4974197;28;20512;-70
2023/05/10 04:42:42;;;;;;;1.77;0.80;;;20.60;71.60;;;;;;4982486;28;20055;-69
2023/05/10 04:45:10;;;;;;;;;;;20.50;71.50;;;;;;4974622;28;20047;-69
2023/05/10 04:47:37;;;;;;;1.27;0.30;;;20.50;71.40;;;;;;4974035;28;19926;-69
2023/05/10 04:50:05;;;;;;;2.05;0.60;;;20.50;71.40;;;;;;4987117;28;20108;-69
2023/05/10 04:52:33;;;;;;;2.40;0.52;;;20.50;71.40;;;;;;4988699;28;20050;-69
2023/05/10 04:55:00;;;;;;;1.50;0.85;;;20.60;71.50;;;;;;4980442;28;20062;-69
2023/05/10 04:57:27;;;;;;;1.90;0.70;;;20.60;71.50;;;;;;4988392;28;20494;-69
2023/05/10 04:59:54;;;;;;;1.58;0.47;;;20.50;71.50;;;;;;4984221;28;20673;-69
2023/05/10 05:02:21;;;;;;;1.65;0.77;;;20.60;71.50;;;;;;4989882;28;20050;-69
2023/05/10 05:04:48;;;;;;;1.50;0.50;;;20.60;71.50;;;;;;4981115;28;20522;-69
2023/05/10 05:07:15;;;;;;;1.67;0.60;;;20.60;71.50;;;;;;4991531;28;20142;-69
2023/05/10 05:09:44;;;;;;;1.85;0.95;;;20.50;71.50;;;;;;4989491;28;20050;-70
2023/05/10 05:12:13;;;;;;;1.60;0.50;;;20.60;71.50;;;;;;4986617;28;20174;-69
2023/05/10 05:14:40;;;;;;;1.70;0.70;;;20.60;71.50;;;;;;4989578;28;20417;-69
2023/05/10 05:17:08;;;;;;;1.52;0.75;;;20.60;71.50;;;;;;4992550;28;20050;-69
2023/05/10 05:19:35;;;;;;;1.40;0.70;;;20.50;71.50;;;;;;4992203;28;20054;-69
2023/05/10 05:22:02;;;;;;;1.77;0.50;;;20.60;71.50;;;;;;4992101;28;20529;-69
2023/05/10 05:24:29;;;;;;;1.52;0.50;;;20.50;71.40;;;;;;4990518;28;20050;-69
2023/05/10 05:26:57;;;;;;;2.40;0.77;;;20.60;71.50;;;;;;4991512;28;20412;-69
2023/05/10 05:29:24;;;;;;;1.60;0.80;;;20.50;71.40;;;;;;4986017;28;20054;-69
2023/05/10 05:31:51;;;;;;;1.63;0.60;;;20.50;71.40;;;;;;4988646;28;20065;-69
2023/05/10 05:34:20;;;;;;;1.60;0.73;;;20.50;71.40;;;;;;4991854;28;20061;-69
2023/05/10 05:36:47;;;;;;;1.88;0.52;;;20.50;71.40;;;;;;4990953;28;20108;-69
2023/05/10 05:39:14;;;;;;;1.58;0.70;;;20.50;71.40;;;;;;4991686;28;20053;-69
2023/05/10 05:41:41;;;;;;;1.80;0.77;;;20.60;71.40;;;;;;4987853;28;20062;-69
2023/05/10 05:44:09;;;;;;;1.73;0.77;;;20.50;71.40;;;;;;4991550;28;20057;-69
2023/05/10 05:46:36;;;;;;;1.58;0.70;;;20.50;71.40;;;;;;4989180;28;20056;-69
2023/05/10 05:49:03;;;;;;;2.05;0.50;;;20.50;71.40;;;;;;4989448;28;20046;-69
2023/05/10 05:51:30;;;;;;;1.50;0.43;;;20.50;71.40;;;;;;4992046;28;20050;-69
2023/05/10 05:53:57;;;;;;;1.20;0.43;;;20.50;71.40;;;;;;4990470;28;20116;-70
2023/05/10 05:56:24;;;;;;;1.63;0.73;;;20.50;71.40;;;;;;4991408;28;20081;-70
2023/05/10 05:58:51;;;;;;;2.17;0.50;;;20.50;71.80;;;;;;4992299;28;20058;-69
2023/05/10 06:01:20;;;;;;;1.77;0.50;;;20.50;71.40;;;;;;4990850;28;20054;-69
2023/05/10 06:03:47;;;;;;;1.38;0.50;;;20.50;71.40;;;;;;4981813;28;20050;-69
2023/05/10 06:06:15;;;;;;;1.50;0.50;;;20.50;71.40;;;;;;4986066;28;20042;-69
2023/05/10 06:08:42;;;;;;;1.90;0.47;;;20.50;71.30;;;;;;4987047;28;20050;-82
2023/05/10 06:11:09;;;;;;;1.73;0.60;;;20.50;71.40;;;;;;4980825;28;20073;-76
2023/05/10 06:13:36;;;;;;;1.48;0.68;;;20.50;71.40;;;;;;4985822;28;20081;-77
2023/05/10 06:16:03;;;;;;;1.92;0.60;;;20.50;71.40;;;;;;4984058;28;20077;-76
2023/05/10 06:18:32;;;;;;;1.60;0.63;;;20.50;71.30;;;;;;4989247;28;20046;-77
2023/05/10 06:20:59;;;;;;;2.75;0.60;;;20.50;71.30;;;;;;4987016;28;20050;-77
2023/05/10 06:23:26;;;;;;;2.00;0.70;;;20.60;71.40;;;;;;4989802;28;20058;-70
2023/05/10 06:25:53;;;;;;;3.03;0.60;;;20.60;71.40;;;;;;4977295;28;20058;-70
2023/05/10 06:28:20;;;;;;;2.15;0.38;;;20.60;71.40;;;;;;4988571;28;20054;-70
2023/05/10 06:30:47;;;;;;;4.15;0.63;;;20.50;71.40;;;;;;4986360;28;20054;-70
2023/05/10 06:33:15;;;;;;;3.38;0.57;;;20.60;71.50;;;;;;4990355;28;20050;-70
2023/05/10 06:35:44;;;;;;;1.60;0.32;;;20.50;71.40;;;;;;4985735;28;20069;-70
2023/05/10 06:38:11;;;;;;;2.33;0.52;;;20.60;71.50;;;;;;4987202;28;20058;-70
2023/05/10 06:40:41;;;;;;;1.15;0.40;;;20.60;71.50;;;;;;4988273;28;20050;-70
2023/05/10 06:43:08;;;;;;;1.55;0.57;;;20.60;71.50;;;;;;4975078;28;20061;-70
2023/05/10 06:45:35;;;;;;;1.77;0.70;;;20.60;71.50;;;;;;4989891;28;20054;-70
2023/05/10 06:48:02;;;;;;;2.15;0.70;;;20.50;71.50;;;;;;4989936;28;20525;-69
2023/05/10 06:50:29;;;;;;;1.52;0.60;;;20.60;71.60;;;;;;4983788;28;20072;-70
2023/05/10 06:52:58;;;;;;;1.48;0.43;;;20.50;71.50;;;;;;4979750;28;20057;-70
2023/05/10 06:55:25;;;;;;;1.55;0.50;;;20.50;71.50;;;;;;4987144;28;20057;-70
2023/05/10 06:57:52;;;;;;;2.20;0.93;;;20.50;71.50;;;;;;4989898;28;20073;-70
2023/05/10 07:00:20;;;;;;;1.98;0.40;;;20.50;71.50;;;;;;4988371;28;20138;-70
2023/05/10 07:02:47;;;;;;;1.17;0.45;;;20.50;71.50;;;;;;4988618;28;20411;-70
2023/05/10 07:05:14;;;;;;;1.80;0.57;;;20.50;71.50;;;;;;4988702;28;20061;-70
2023/05/10 07:07:42;;;;;;;1.20;0.40;;;20.50;71.50;;;;;;4989292;28;20510;-70
2023/05/10 07:10:11;;;;;;;1.38;0.57;;;20.60;71.60;;;;;;4988600;28;20054;-70
2023/05/10 07:12:38;;;;;;;1.52;0.35;;;20.50;71.50;;;;;;4982354;28;20054;-69
2023/05/10 07:15:06;;;;;;;1.50;0.50;;;20.50;71.50;;;;;;4988535;28;20475;-70
2023/05/10 07:17:34;;;;;;;1.88;0.55;;;20.50;71.50;;;;;;4987778;28;20557;-69
2023/05/10 07:20:01;;;;;;;1.00;0.30;;;20.50;71.50;;;;;;4988492;28;20058;-70
2023/05/10 07:22:29;;;;;;;1.63;0.32;;;20.50;71.50;;;;;;4989345;28;20054;-69
2023/05/10 07:24:56;;;;;;;1.20;0.40;;;20.50;71.50;;;;;;4988101;28;20086;-70
2023/05/10 07:27:24;;;;;;;2.08;0.40;;;20.50;71.40;;;;;;4977652;28;20582;-70
2023/05/10 07:29:51;;;;;;;0.90;0.30;;;20.50;71.50;;;;;;4986585;28;20054;-70
2023/05/10 07:32:18;;;;;;;1.15;0.20;;;20.50;71.50;;;;;;4988957;28;20094;-70
2023/05/10 07:34:45;;;;;;;1.20;0.40;;;20.50;71.50;;;;;;4989718;28;20055;-70
2023/05/10 07:37:12;;;;;;;1.90;0.40;;;20.50;71.40;;;;;;4987323;28;20046;-70
2023/05/10 07:39:39;;;;;;;1.05;0.55;;;20.50;71.50;;;;;;4975662;28;20049;-70
2023/05/10 07:42:06;;;;;;;1.67;0.52;;;20.50;71.50;;;;;;4983577;28;20050;-70
2023/05/10 07:44:35;;;;;;;1.38;0.57;;;20.50;71.50;;;;;;4989546;28;20518;-69
2023/05/10 07:47:02;;;;;;;1.33;0.32;;;20.50;71.50;;;;;;4989687;28;20054;-70
2023/05/10 07:49:29;;;;;;;1.83;0.73;;;20.50;71.50;;;;;;4989533;28;20414;-69
2023/05/10 07:51:56;;;;;;;1.33;0.40;;;20.50;71.40;;;;;;4989552;28;20074;-70
2023/05/10 07:54:23;;;;;;;1.88;0.55;;;20.50;71.40;;;;;;4986871;28;20062;-69
2023/05/10 07:56:50;;;;;;;1.15;0.63;;;20.50;71.40;;;;;;4989526;28;20046;-69
2023/05/10 07:59:18;;;;;;;1.20;0.20;;;20.50;71.40;;;;;;4989640;28;20042;-70
2023/05/10 08:01:47;;;;;;;1.30;0.40;;;20.50;71.40;;;;;;4989367;28;20050;-69
2023/05/10 08:04:14;;;;;;;1.02;0.32;;;20.50;71.40;;;;;;4989423;28;20519;-69
2023/05/10 08:06:41;;;;;;;1.17;0.30;;;20.50;71.40;;;;;;4987070;28;20061;-69
2023/05/10 08:09:08;;;;;;;1.20;0.43;;;20.50;71.40;;;;;;4989170;28;20624;-70
2023/05/10 08:11:35;;;;;;;1.33;0.45;;;20.50;71.40;;;;;;4987312;28;20054;-70
2023/05/10 08:14:02;;;;;;;1.85;0.65;;;20.50;71.40;;;;;;4987448;28;20050;-70
2023/05/10 08:16:29;;;;;;;1.23;0.40;;;20.50;71.40;;;;;;4988980;28;20050;-70
2023/05/10 08:18:57;;;;;;;1.20;0.50;;;20.50;71.40;;;;;;4988387;28;20072;-70
2023/05/10 08:21:24;;;;;;;1.25;0.30;;;20.50;71.40;;;;;;4987210;28;20050;-70
2023/05/10 08:23:51;;;;;;;1.17;0.35;;;20.50;71.30;;;;;;4986944;28;20053;-69
2023/05/10 08:26:18;;;;;;;1.10;0.35;;;20.50;71.30;;;;;;4988183;28;20049;-69
2023/05/10 08:28:45;;;;;;;1.65;0.40;;;20.50;71.40;;;;;;4988243;28;20053;-70
2023/05/10 08:31:12;;;;;;;1.50;0.25;;;20.50;71.30;;;;;;4987030;28;20054;-70
2023/05/10 08:33:39;;;;;;;0.90;0.20;;;20.50;71.30;;;;;;4986682;28;20050;-70
2023/05/10 08:36:08;;;;;;;1.17;0.35;;;20.50;71.40;;;;;;4992088;28;20050;-70
2023/05/10 08:38:35;;;;;;;1.10;0.28;;;20.50;71.40;;;;;;4990689;28;20058;-70
2023/05/10 08:41:03;;;;;;;2.00;0.47;;;20.50;71.40;;;;;;4991463;28;20407;-70
2023/05/10 08:43:31;;;;;;;1.00;0.32;;;20.50;71.30;;;;;;4985218;28;20086;-72
2023/05/10 08:46:02;;;;;;;1.45;0.30;;;20.50;71.40;;;;;;4989861;28;20523;-69
2023/05/10 08:48:30;;;;;;;1.48;0.30;;;20.50;71.40;;;;;;4992242;28;20053;-70
2023/05/10 08:50:59;;;;;;;0.90;0.30;;;20.50;71.30;;;;;;4991568;28;20517;-70
2023/05/10 08:53:29;;;;;;;0.75;0.20;;;20.50;71.40;;;;;;4991351;28;20422;-70
2023/05/10 08:55:57;;;;;;;1.70;0.43;;;20.50;71.30;;;;;;4991534;28;20162;-70
2023/05/10 08:58:24;;;;;;;0.90;0.25;;;20.50;71.30;;;;;;4991618;28;20058;-70
2023/05/10 09:00:52;;;;;;;1.10;0.22;;;20.50;71.30;;;;;;4991872;28;20054;-70
2023/05/10 09:03:19;;;;;;;1.02;0.30;;;20.50;71.30;;;;;;4989466;28;20066;-70
2023/05/10 09:05:46;;;;;;;2.15;0.40;;;20.50;71.30;;;;;;4990833;28;20153;-71
2023/05/10 09:08:16;;;;;;;1.02;0.20;;;20.50;71.40;;;;;;4989107;28;20063;-70
2023/05/10 09:10:47;;;;;;;;;;;20.50;71.40;;;;;;4987975;28;20137;-70
2023/05/10 09:13:16;;;;;;;2.13;0.50;;;20.50;72.00;;;;;;4989689;28;19951;-70
2023/05/10 09:15:43;;;;;;;1.10;0.30;;;20.50;71.30;;;;;;4989553;28;20050;-70
2023/05/10 09:18:10;;;;;;;1.83;0.40;;;20.50;71.40;;;;;;4991542;28;20050;-69
2023/05/10 09:20:37;;;;;;;1.25;0.40;;;20.50;71.40;;;;;;4990810;28;20058;-70
2023/05/10 09:23:04;;;;;;;1.00;0.38;;;20.50;71.50;;;;;;4989575;28;20051;-69
2023/05/10 09:25:33;;;;;;;0.93;0.30;;;20.50;71.50;;;;;;4991408;28;20069;-70
2023/05/10 09:28:01;;;;;;;1.15;0.40;;;20.50;71.50;;;;;;4990497;28;20043;-70
2023/05/10 09:30:29;;;;;;;2.08;0.30;;;20.50;71.50;;;;;;4990450;28;20046;-69
2023/05/10 09:32:58;;;;;;;1.20;0.40;;;20.50;71.50;;;;;;4991058;28;20046;-70
2023/05/10 09:35:27;;;;;;;1.20;0.45;;;20.50;71.50;;;;;;4990010;28;20056;-70
2023/05/10 09:37:56;;;;;;;1.10;0.40;;;20.50;71.40;;;;;;4988067;28;20056;-70
2023/05/10 09:40:24;;;;;;;1.15;0.28;;;20.50;71.40;;;;;;4990049;28;20046;-70
2023/05/10 09:42:55;;;;;;;1.10;0.30;;;20.50;71.40;;;;;;4983258;28;20054;-70
2023/05/10 09:45:24;;;;;;;1.40;0.43;;;20.50;71.40;;;;;;4988767;28;20042;-70
2023/05/10 09:47:51;;;;;;;;;;;20.50;71.40;;;;;;4984782;28;20058;-70
2023/05/10 09:50:20;;;;;;;1.38;0.30;;;20.50;71.50;;;;;;4990912;28;19929;-70
2023/05/10 09:52:49;;;;;;;1.10;0.30;;;20.50;71.40;;;;;;4991195;28;20042;-70
2023/05/10 09:55:16;;;;;;;1.23;0.28;;;20.50;71.40;;;;;;4989417;28;20384;-77
2023/05/10 09:57:43;;;;;;;1.00;0.30;;;20.50;71.40;;;;;;4984434;28;20054;-81
2023/05/10 10:00:12;;;;;;;1.35;0.40;;;20.50;71.40;;;;;;4988434;28;20080;-70
2023/05/10 10:02:41;;;;;;;1.63;0.30;;;20.50;71.50;;;;;;4988970;28;20046;-71
2023/05/10 10:05:08;;;;;;;2.13;0.20;;;20.50;71.60;;;;;;4985322;28;20503;-71
2023/05/10 10:07:36;;;;;;;2.45;0.20;;;20.50;71.60;;;;;;4977254;28;20073;-71
2023/05/10 10:10:04;;;;;;;1.05;0.17;;;20.50;71.70;;;;;;4977734;28;20042;-70
2023/05/10 10:12:31;;;;;;;1.48;0.30;;;20.50;71.70;;;;;;4989234;28;20157;-69
2023/05/10 10:15:01;;;;;;;1.40;0.30;;;20.50;71.70;;;;;;4989415;28;20053;-70
2023/05/10 10:17:29;;;;;;;1.50;0.20;;;20.50;71.70;;;;;;4987112;28;20082;-70
2023/05/10 10:19:58;;;;;;;0.93;0.32;;;20.50;71.70;;;;;;4986076;28;20066;-70
2023/05/10 10:22:26;;;;;;;0.90;0.32;;;20.50;71.70;;;;;;4978117;28;20121;-69
2023/05/10 10:24:53;;;;;;;1.48;0.47;;;20.50;71.70;;;;;;4984969;28;20058;-68
2023/05/10 10:27:26;;;;;;;1.27;0.20;;;20.60;71.70;;;;;;4981829;28;20058;-78
2023/05/10 10:30:04;;;;;;;1.00;0.22;;;20.60;71.80;;;;;;4978549;28;20053;-75
2023/05/10 10:32:43;;;;;;;0.90;0.20;;;20.60;71.80;;;;;;4989256;28;20080;-81
2023/05/10 10:35:11;;;;;;;1.00;0.40;;;20.60;71.80;;;;;;4987979;28;20530;-80
2023/05/10 10:37:46;;;;;;;2.05;0.35;;;20.60;71.80;;;;;;4986500;28;20050;-70
2023/05/10 10:40:26;;;;;;;1.38;0.20;;;20.60;71.80;;;;;;4985897;28;20133;-70
2023/05/10 10:42:54;;;;;;;1.30;0.30;;;20.60;71.80;;;;;;4984762;28;20046;-77
2023/05/10 10:45:22;;;;;;;1.00;0.20;;;20.60;71.80;;;;;;4984306;28;20415;-78
2023/05/10 10:47:49;;;;;;;2.25;0.32;;;20.70;71.80;;;;;;4981053;28;20430;-78
2023/05/10 10:50:17;;;;;;;1.65;0.20;;;20.70;71.90;;;;;;4986559;28;20042;-78
2023/05/10 10:52:45;;;;;;;4.43;0.20;;;20.60;71.90;;;;;;4983591;28;20054;-79
2023/05/10 10:55:14;;;;;;;1.52;0.30;;;20.70;72.00;;;;;;4989743;28;20156;-83
2023/05/10 10:57:48;;;;;;;0.88;0.20;;;20.70;72.10;;;;;;4988953;28;20042;-79
2023/05/10 11:00:23;;;;;;;1.85;0.30;;;20.70;72.20;;;;;;4990144;28;20137;-78
2023/05/10 11:02:53;;;;;;;3.40;0.20;;;20.70;72.20;;;;;;4984871;28;20046;-79
2023/05/10 11:05:44;;;;;;;1.70;0.20;;;20.70;72.30;;;;;;4988522;28;20061;-79
2023/05/10 11:08:17;;;;;;;1.85;0.43;;;20.70;72.40;;;;;;4982734;28;20082;-78
2023/05/10 11:10:53;;;;;;;1.25;0.20;;;20.70;72.40;;;;;;4982878;28;20050;-79
2023/05/10 11:13:29;;;;;;;1.88;0.30;;;20.70;72.50;;;;;;4976379;28;20053;-69
2023/05/10 11:15:57;;;;;;;1.08;0.20;;;20.70;73.20;;;;;;4966258;28;20085;-69
2023/05/10 11:18:26;;;;;;;1.98;0.40;;;20.80;72.60;;;;;;4974886;28;20129;-70
2023/05/10 11:20:57;;;;;;;0.95;0.30;;;20.70;72.60;;;;;;4982271;28;20058;-68
2023/05/10 11:23:30;;;;;;;1.45;0.43;;;20.80;72.70;;;;;;4983392;28;20050;-69
2023/05/10 11:25:57;;;;;;;0.70;0.20;;;20.80;72.70;;;;;;4985651;28;20573;-68
2023/05/10 11:28:24;;;;;;;1.10;0.20;;;20.80;72.60;;;;;;4979881;28;20054;-74
2023/05/10 11:30:52;;;;;;;1.25;0.30;;;20.80;72.60;;;;;;4986180;28;20053;-75
2023/05/10 11:33:19;;;;;;;0.88;0.20;;;20.80;72.60;;;;;;4976112;28;20139;-71
2023/05/10 11:35:47;;;;;;;2.00;0.30;;;20.80;72.60;;;;;;4986799;28;20392;-70
2023/05/10 11:38:15;;;;;;;0.82;0.22;;;20.80;72.60;;;;;;4985366;28;20057;-72
2023/05/10 11:40:42;;;;;;;3.33;0.30;;;20.90;72.70;;;;;;4976059;28;20050;-69
2023/05/10 11:43:11;;;;;;;1.55;0.70;;;20.90;72.60;;;;;;4978437;28;20050;-68
2023/05/10 11:45:38;;;;;;;0.90;0.20;;;20.90;72.60;;;;;;4981332;28;20047;-68
2023/05/10 11:48:05;;;;;;;0.95;0.30;;;20.90;72.60;;;;;;4985454;28;20388;-69
2023/05/10 11:50:32;;;;;;;2.17;0.40;;;20.90;72.50;;;;;;4983601;28;20054;-68
2023/05/10 11:52:59;;;;;;;0.90;0.20;;;21.00;72.60;;;;;;4985302;28;20054;-68
2023/05/10 11:55:30;;;;;;;1.42;0.20;;;20.90;72.40;;;;;;4985125;28;20078;-68
2023/05/10 11:58:02;;;;;;;2.45;0.20;;;21.00;72.50;;;;;;4985658;28;20092;-68
2023/05/10 12:00:30;;;;;;;1.95;0.30;;;21.00;72.50;;;;;;4982540;28;20058;-68
2023/05/10 12:02:57;;;;;;;1.80;0.50;;;21.00;72.50;;;;;;4982420;28;20046;-68
2023/05/10 12:05:25;;;;;;;2.65;0.30;;;21.00;72.50;;;;;;4978054;28;20487;-68
2023/05/10 12:07:52;;;;;;;2.22;0.40;;;21.00;72.40;;;;;;4980046;28;20055;-68
2023/05/10 12:10:27;;;;;;;1.15;0.20;;;21.00;72.30;;;;;;4984035;28;20062;-68
2023/05/10 12:12:54;;;;;;;0.70;0.20;;;21.00;72.30;;;;;;4982544;28;20046;-68
2023/05/10 12:15:23;;;;;;;1.52;0.63;;;21.00;72.20;;;;;;4986135;28;20062;-68
2023/05/10 12:17:51;;;;;;;1.13;0.20;;;21.00;72.30;;;;;;4985760;28;20135;-68
2023/05/10 12:20:19;;;;;;;1.95;0.25;;;21.00;72.30;;;;;;4986686;28;20056;-68
2023/05/10 12:22:48;;;;;;;1.67;0.28;;;21.00;72.40;;;;;;4984533;28;20058;-68
2023/05/10 12:25:15;;;;;;;1.52;0.20;;;20.90;72.30;;;;;;4982595;28;20043;-68
2023/05/10 12:27:49;;;;;;;1.52;0.20;;;20.90;72.30;;;;;;4986412;28;20482;-68
2023/05/10 12:30:21;;;;;;;1.95;0.25;;;21.00;72.30;;;;;;4969380;28;20500;-68
2023/05/10 12:32:48;;;;;;;0.63;0.20;;;20.90;72.30;;;;;;4980315;28;20452;-68
2023/05/10 12:35:16;;;;;;;2.42;0.30;;;21.00;72.30;;;;;;4985371;28;20050;-68
2023/05/10 12:37:43;;;;;;;0.77;0.20;;;21.00;72.90;;;;;;4986075;28;20053;-68
2023/05/10 12:40:11;;;;;;;1.15;0.30;;;20.90;72.30;;;;;;4979628;28;20047;-68
2023/05/10 12:42:39;;;;;;;0.70;0.17;;;21.00;72.30;;;;;;4984602;28;20054;-68
2023/05/10 12:45:09;;;;;;;0.60;0.10;;;21.00;72.30;;;;;;4977019;28;20054;-69
2023/05/10 12:47:36;;;;;;;1.63;0.50;;;21.00;72.30;;;;;;4982571;28;20065;-68
2023/05/10 12:50:05;;;;;;;0.90;0.32;;;20.90;72.30;;;;;;4972786;28;20077;-68
2023/05/10 12:52:32;;;;;;;1.33;0.20;;;20.90;72.30;;;;;;4979500;28;20093;-69
2023/05/10 12:55:00;;;;;;;1.67;0.35;;;21.00;72.40;;;;;;4977830;28;20050;-68